sensor_id;sensor_type;location;lat;lon;timestamp;pressure;altitude;pressure_sealevel;temperature;humidity
76201;BME280;64981;52.930;9.266;2023-02-15T00:00:26;102736.38;;;3.63;82.01
76201;BME280;64981;52.930;9.266;2023-02-15T00:02:51;102725.84;;;3.83;80.97
76201;BME280;64981;52.930;9.266;2023-02-15T00:05:17;102728.31;;;3.68;81.68
76201;BME280;64981;52.930;9.266;2023-02-15T00:07:43;102727.69;;;3.81;81.09
76201;BME280;64981;52.930;9.266;2023-02-15T00:10:09;102725.56;;;3.71;81.21
76201;BME280;64981;52.930;9.266;2023-02-15T00:12:34;102713.84;;;3.98;80.39
76201;BME280;64981;52.930;9.266;2023-02-15T00:15:00;102716.94;;;3.69;80.91
76201;BME280;64981;52.930;9.266;2023-02-15T00:17:28;102715.75;;;3.57;81.24
76201;BME280;64981;52.930;9.266;2023-02-15T00:19:54;102724.09;;;3.45;81.39
76201;BME280;64981;52.930;9.266;2023-02-15T00:22:20;102717.72;;;3.71;80.65
76201;BME280;64981;52.930;9.266;2023-02-15T00:24:45;102708.88;;;3.55;81.18
76201;BME280;64981;52.930;9.266;2023-02-15T00:27:11;102710.81;;;3.31;81.80
76201;BME280;64981;52.930;9.266;2023-02-15T00:29:36;102710.13;;;3.46;81.77
76201;BME280;64981;52.930;9.266;2023-02-15T00:32:02;102705.88;;;3.25;82.49
76201;BME280;64981;52.930;9.266;2023-02-15T00:34:28;102697.91;;;3.28;82.31
76201;BME280;64981;52.930;9.266;2023-02-15T00:36:53;102701.34;;;3.28;82.26
76201;BME280;64981;52.930;9.266;2023-02-15T00:39:19;102709.00;;;3.13;82.14
76201;BME280;64981;52.930;9.266;2023-02-15T00:41:46;102707.75;;;3.21;82.45
76201;BME280;64981;52.930;9.266;2023-02-15T00:44:12;102699.81;;;3.43;81.36
76201;BME280;64981;52.930;9.266;2023-02-15T00:46:38;102699.06;;;3.21;81.16
76201;BME280;64981;52.930;9.266;2023-02-15T00:49:05;102695.00;;;3.34;81.58
76201;BME280;64981;52.930;9.266;2023-02-15T00:51:31;102705.28;;;3.18;82.17
76201;BME280;64981;52.930;9.266;2023-02-15T00:53:56;102699.16;;;2.99;82.69
76201;BME280;64981;52.930;9.266;2023-02-15T00:56:22;102695.69;;;2.99;82.99
76201;BME280;64981;52.930;9.266;2023-02-15T00:58:48;102695.94;;;2.93;82.90
76201;BME280;64981;52.930;9.266;2023-02-15T01:01:16;102697.13;;;3.26;81.83
76201;BME280;64981;52.930;9.266;2023-02-15T01:03:42;102688.81;;;3.36;81.59
76201;BME280;64981;52.930;9.266;2023-02-15T01:06:09;102688.72;;;3.19;81.22
76201;BME280;64981;52.930;9.266;2023-02-15T01:08:34;102685.47;;;2.94;82.33
76201;BME280;64981;52.930;9.266;2023-02-15T01:11:11;102684.06;;;3.06;82.34
76201;BME280;64981;52.930;9.266;2023-02-15T01:13:37;102681.53;;;2.84;82.49
76201;BME280;64981;52.930;9.266;2023-02-15T01:16:03;102677.75;;;2.91;82.91
76201;BME280;64981;52.930;9.266;2023-02-15T01:18:29;102673.25;;;2.74;82.55
76201;BME280;64981;52.930;9.266;2023-02-15T01:20:55;102680.28;;;2.93;82.51
76201;BME280;64981;52.930;9.266;2023-02-15T01:23:21;102672.00;;;3.03;82.26
76201;BME280;64981;52.930;9.266;2023-02-15T01:25:47;102677.16;;;3.05;81.82
76201;BME280;64981;52.930;9.266;2023-02-15T01:28:13;102671.00;;;3.26;81.65
76201;BME280;64981;52.930;9.266;2023-02-15T01:30:40;102665.31;;;2.98;82.13
76201;BME280;64981;52.930;9.266;2023-02-15T01:33:06;102669.19;;;3.08;81.50
76201;BME280;64981;52.930;9.266;2023-02-15T01:35:33;102672.66;;;3.08;81.36
76201;BME280;64981;52.930;9.266;2023-02-15T01:38:01;102666.38;;;2.92;81.78
76201;BME280;64981;52.930;9.266;2023-02-15T01:40:27;102664.53;;;3.14;80.72
76201;BME280;64981;52.930;9.266;2023-02-15T01:42:55;102667.16;;;3.14;80.76
76201;BME280;64981;52.930;9.266;2023-02-15T01:45:28;102669.97;;;2.90;81.42
76201;BME280;64981;52.930;9.266;2023-02-15T01:48:01;102667.09;;;3.16;81.05
76201;BME280;64981;52.930;9.266;2023-02-15T01:50:37;102653.88;;;3.00;81.25
76201;BME280;64981;52.930;9.266;2023-02-15T01:53:19;102658.09;;;3.03;81.50
76201;BME280;64981;52.930;9.266;2023-02-15T01:55:53;102655.66;;;3.18;80.83
76201;BME280;64981;52.930;9.266;2023-02-15T01:58:22;102649.81;;;3.13;80.20
76201;BME280;64981;52.930;9.266;2023-02-15T02:00:50;102635.06;;;3.12;80.26
76201;BME280;64981;52.930;9.266;2023-02-15T02:03:16;102634.97;;;3.14;80.26
76201;BME280;64981;52.930;9.266;2023-02-15T02:05:42;102636.00;;;2.71;80.99
76201;BME280;64981;52.930;9.266;2023-02-15T02:08:08;102623.34;;;2.62;81.53
76201;BME280;64981;52.930;9.266;2023-02-15T02:10:35;102629.94;;;2.70;81.76
76201;BME280;64981;52.930;9.266;2023-02-15T02:13:05;102625.91;;;2.63;81.58
76201;BME280;64981;52.930;9.266;2023-02-15T02:15:43;102625.34;;;2.96;80.80
76201;BME280;64981;52.930;9.266;2023-02-15T02:18:33;102626.28;;;2.74;81.66
76201;BME280;64981;52.930;9.266;2023-02-15T02:21:25;102625.25;;;2.58;81.21
76201;BME280;64981;52.930;9.266;2023-02-15T02:24:17;102623.34;;;2.62;80.42
76201;BME280;64981;52.930;9.266;2023-02-15T02:27:12;102622.50;;;2.61;80.79
76201;BME280;64981;52.930;9.266;2023-02-15T02:30:06;102616.88;;;2.70;80.58
76201;BME280;64981;52.930;9.266;2023-02-15T02:35:48;102619.84;;;2.63;80.77
76201;BME280;64981;52.930;9.266;2023-02-15T02:41:43;102527.13;;;2.15;80.27
76201;BME280;64981;52.930;9.266;2023-02-15T02:44:17;102563.78;;;2.11;81.29
76201;BME280;64981;52.930;9.266;2023-02-15T02:46:52;102615.28;;;2.26;81.27
76201;BME280;64981;52.930;9.266;2023-02-15T02:49:33;102611.28;;;2.39;81.29
76201;BME280;64981;52.930;9.266;2023-02-15T02:52:04;102591.25;;;2.19;80.43
76201;BME280;64981;52.930;9.266;2023-02-15T02:54:34;102591.03;;;2.04;82.11
76201;BME280;64981;52.930;9.266;2023-02-15T02:57:05;102596.34;;;2.22;81.29
76201;BME280;64981;52.930;9.266;2023-02-15T02:59:41;102594.63;;;2.21;81.33
76201;BME280;64981;52.930;9.266;2023-02-15T03:02:15;102579.50;;;2.09;81.41
76201;BME280;64981;52.930;9.266;2023-02-15T03:04:47;102581.06;;;2.13;80.02
76201;BME280;64981;52.930;9.266;2023-02-15T03:07:19;102589.69;;;2.15;80.40
76201;BME280;64981;52.930;9.266;2023-02-15T03:09:55;102581.31;;;1.86;81.60
76201;BME280;64981;52.930;9.266;2023-02-15T03:12:29;102582.53;;;1.99;81.59
76201;BME280;64981;52.930;9.266;2023-02-15T03:15:03;102576.72;;;1.92;81.88
76201;BME280;64981;52.930;9.266;2023-02-15T03:17:33;102568.81;;;2.15;81.26
76201;BME280;64981;52.930;9.266;2023-02-15T03:20:06;102569.72;;;1.72;81.08
76201;BME280;64981;52.930;9.266;2023-02-15T03:22:40;102579.69;;;1.83;81.34
76201;BME280;64981;52.930;9.266;2023-02-15T03:25:18;102571.22;;;1.56;82.23
76201;BME280;64981;52.930;9.266;2023-02-15T03:27:52;102557.63;;;1.92;81.41
76201;BME280;64981;52.930;9.266;2023-02-15T03:30:22;102569.72;;;1.72;81.69
76201;BME280;64981;52.930;9.266;2023-02-15T03:32:50;102554.38;;;1.65;82.24
76201;BME280;64981;52.930;9.266;2023-02-15T03:35:21;102559.66;;;1.63;82.82
76201;BME280;64981;52.930;9.266;2023-02-15T03:37:58;102554.16;;;1.49;82.92
76201;BME280;64981;52.930;9.266;2023-02-15T03:40:37;102552.03;;;1.81;81.86
76201;BME280;64981;52.930;9.266;2023-02-15T03:46:34;102561.34;;;1.86;81.92
76201;BME280;64981;52.930;9.266;2023-02-15T03:51:59;102553.25;;;1.72;81.21
76201;BME280;64981;52.930;9.266;2023-02-15T03:54:31;102558.81;;;1.63;81.29
76201;BME280;64981;52.930;9.266;2023-02-15T03:57:20;102561.34;;;1.64;81.24
76201;BME280;64981;52.930;9.266;2023-02-15T03:59:58;102566.75;;;1.82;81.01
76201;BME280;64981;52.930;9.266;2023-02-15T04:02:51;102571.63;;;1.89;80.01
76201;BME280;64981;52.930;9.266;2023-02-15T04:05:19;102574.84;;;1.52;81.00
76201;BME280;64981;52.930;9.266;2023-02-15T04:07:44;102579.34;;;1.70;80.98
76201;BME280;64981;52.930;9.266;2023-02-15T04:10:10;102581.41;;;1.84;80.89
76201;BME280;64981;52.930;9.266;2023-02-15T04:12:47;102568.66;;;1.98;80.36
76201;BME280;64981;52.930;9.266;2023-02-15T04:15:13;102570.25;;;2.02;80.30
76201;BME280;64981;52.930;9.266;2023-02-15T04:17:57;102564.19;;;1.80;80.02
76201;BME280;64981;52.930;9.266;2023-02-15T04:20:23;102562.66;;;1.96;79.98
76201;BME280;64981;52.930;9.266;2023-02-15T04:23:07;102564.38;;;2.17;79.52
76201;BME280;64981;52.930;9.266;2023-02-15T04:25:47;102562.25;;;2.07;79.45
76201;BME280;64981;52.930;9.266;2023-02-15T04:28:13;102555.88;;;2.34;78.63
76201;BME280;64981;52.930;9.266;2023-02-15T04:30:38;102549.59;;;2.18;78.61
76201;BME280;64981;52.930;9.266;2023-02-15T04:33:04;102529.53;;;2.00;78.52
76201;BME280;64981;52.930;9.266;2023-02-15T04:35:29;102547.28;;;1.90;78.67
76201;BME280;64981;52.930;9.266;2023-02-15T04:37:56;102539.25;;;1.95;79.00
76201;BME280;64981;52.930;9.266;2023-02-15T04:40:22;102539.94;;;2.00;79.02
76201;BME280;64981;52.930;9.266;2023-02-15T04:42:48;102543.03;;;2.09;78.06
76201;BME280;64981;52.930;9.266;2023-02-15T04:45:14;102524.47;;;1.32;80.14
76201;BME280;64981;52.930;9.266;2023-02-15T04:47:41;102533.13;;;1.54;79.91
76201;BME280;64981;52.930;9.266;2023-02-15T04:50:07;102492.78;;;1.42;79.44
76201;BME280;64981;52.930;9.266;2023-02-15T04:52:32;102525.78;;;1.63;78.99
76201;BME280;64981;52.930;9.266;2023-02-15T04:54:58;102526.03;;;1.57;78.64
76201;BME280;64981;52.930;9.266;2023-02-15T04:57:24;102530.63;;;1.29;78.63
76201;BME280;64981;52.930;9.266;2023-02-15T04:59:49;102523.84;;;1.25;79.58
76201;BME280;64981;52.930;9.266;2023-02-15T05:02:15;102519.84;;;1.38;79.30
76201;BME280;64981;52.930;9.266;2023-02-15T05:04:40;102518.28;;;1.34;79.45
76201;BME280;64981;52.930;9.266;2023-02-15T05:07:06;102522.28;;;1.21;79.22
76201;BME280;64981;52.930;9.266;2023-02-15T05:09:31;102527.13;;;1.07;80.12
76201;BME280;64981;52.930;9.266;2023-02-15T05:11:57;102518.03;;;1.18;79.18
76201;BME280;64981;52.930;9.266;2023-02-15T05:14:23;102517.06;;;0.98;79.37
76201;BME280;64981;52.930;9.266;2023-02-15T05:16:48;102521.22;;;1.03;79.86
76201;BME280;64981;52.930;9.266;2023-02-15T05:19:14;102522.56;;;1.13;79.73
76201;BME280;64981;52.930;9.266;2023-02-15T05:21:40;102528.38;;;1.42;78.52
76201;BME280;64981;52.930;9.266;2023-02-15T05:24:05;102514.72;;;1.37;78.01
76201;BME280;64981;52.930;9.266;2023-02-15T05:26:51;102518.41;;;1.31;78.26
76201;BME280;64981;52.930;9.266;2023-02-15T05:29:28;102516.41;;;1.16;79.02
76201;BME280;64981;52.930;9.266;2023-02-15T05:31:54;102508.53;;;1.17;78.99
76201;BME280;64981;52.930;9.266;2023-02-15T05:34:19;102506.16;;;1.33;78.78
76201;BME280;64981;52.930;9.266;2023-02-15T05:36:45;102513.25;;;1.51;78.03
76201;BME280;64981;52.930;9.266;2023-02-15T05:39:11;102492.53;;;1.27;78.79
76201;BME280;64981;52.930;9.266;2023-02-15T05:41:36;102496.66;;;1.32;78.36
76201;BME280;64981;52.930;9.266;2023-02-15T05:44:02;102505.41;;;1.08;79.42
76201;BME280;64981;52.930;9.266;2023-02-15T05:46:27;102488.06;;;1.08;78.78
76201;BME280;64981;52.930;9.266;2023-02-15T05:48:53;102496.06;;;1.26;78.44
76201;BME280;64981;52.930;9.266;2023-02-15T05:51:20;102480.00;;;0.93;78.72
76201;BME280;64981;52.930;9.266;2023-02-15T05:53:46;102489.88;;;1.06;78.46
76201;BME280;64981;52.930;9.266;2023-02-15T05:56:12;102478.78;;;1.01;79.18
76201;BME280;64981;52.930;9.266;2023-02-15T05:58:40;102484.00;;;1.23;78.31
76201;BME280;64981;52.930;9.266;2023-02-15T06:01:16;102480.41;;;1.04;77.88
76201;BME280;64981;52.930;9.266;2023-02-15T06:03:43;102479.72;;;1.00;77.57
76201;BME280;64981;52.930;9.266;2023-02-15T06:06:09;102464.69;;;0.62;78.94
76201;BME280;64981;52.930;9.266;2023-02-15T06:08:37;102479.94;;;0.71;78.77
76201;BME280;64981;52.930;9.266;2023-02-15T06:11:03;102481.06;;;0.87;78.32
76201;BME280;64981;52.930;9.266;2023-02-15T06:13:31;102499.59;;;0.55;78.83
76201;BME280;64981;52.930;9.266;2023-02-15T06:15:56;102489.75;;;0.40;80.39
76201;BME280;64981;52.930;9.266;2023-02-15T06:18:22;102485.81;;;0.53;80.22
76201;BME280;64981;52.930;9.266;2023-02-15T06:20:48;102493.72;;;0.73;79.53
76201;BME280;64981;52.930;9.266;2023-02-15T06:23:14;102494.19;;;0.84;78.98
76201;BME280;64981;52.930;9.266;2023-02-15T06:25:42;102481.97;;;0.86;78.11
76201;BME280;64981;52.930;9.266;2023-02-15T06:28:07;102492.53;;;1.05;77.95
76201;BME280;64981;52.930;9.266;2023-02-15T06:30:33;102497.97;;;0.99;78.18
76201;BME280;64981;52.930;9.266;2023-02-15T06:32:59;102496.25;;;0.98;77.97
76201;BME280;64981;52.930;9.266;2023-02-15T06:35:25;102489.03;;;1.06;77.80
76201;BME280;64981;52.930;9.266;2023-02-15T06:37:50;102500.56;;;0.99;77.93
76201;BME280;64981;52.930;9.266;2023-02-15T06:40:16;102500.06;;;1.12;77.18
76201;BME280;64981;52.930;9.266;2023-02-15T06:42:42;102497.72;;;1.05;76.99
76201;BME280;64981;52.930;9.266;2023-02-15T06:45:08;102501.66;;;0.93;77.59
76201;BME280;64981;52.930;9.266;2023-02-15T06:47:34;102501.00;;;0.63;78.17
76201;BME280;64981;52.930;9.266;2023-02-15T06:50:00;102500.97;;;0.65;78.53
76201;BME280;64981;52.930;9.266;2023-02-15T06:52:25;102486.19;;;0.42;79.13
76201;BME280;64981;52.930;9.266;2023-02-15T06:54:51;102503.94;;;0.31;79.49
76201;BME280;64981;52.930;9.266;2023-02-15T06:57:17;102501.63;;;0.47;79.56
76201;BME280;64981;52.930;9.266;2023-02-15T06:59:42;102501.34;;;0.54;78.81
76201;BME280;64981;52.930;9.266;2023-02-15T07:02:11;102487.84;;;0.68;78.20
76201;BME280;64981;52.930;9.266;2023-02-15T07:04:36;102489.84;;;0.85;77.72
76201;BME280;64981;52.930;9.266;2023-02-15T07:07:02;102496.16;;;0.54;78.82
76201;BME280;64981;52.930;9.266;2023-02-15T07:09:28;102476.78;;;0.38;79.07
76201;BME280;64981;52.930;9.266;2023-02-15T07:11:54;102488.47;;;0.75;77.96
76201;BME280;64981;52.930;9.266;2023-02-15T07:14:37;102488.81;;;0.65;78.10
76201;BME280;64981;52.930;9.266;2023-02-15T07:17:03;102482.94;;;0.84;78.17
76201;BME280;64981;52.930;9.266;2023-02-15T07:19:28;102481.19;;;0.61;78.50
76201;BME280;64981;52.930;9.266;2023-02-15T07:21:54;102483.72;;;0.86;78.36
76201;BME280;64981;52.930;9.266;2023-02-15T07:24:20;102453.75;;;0.76;76.98
76201;BME280;64981;52.930;9.266;2023-02-15T07:26:45;102478.97;;;0.97;77.32
76201;BME280;64981;52.930;9.266;2023-02-15T07:29:12;102472.31;;;0.90;77.51
76201;BME280;64981;52.930;9.266;2023-02-15T07:31:37;102465.41;;;1.10;76.91
76201;BME280;64981;52.930;9.266;2023-02-15T07:34:05;102460.06;;;0.47;78.36
76201;BME280;64981;52.930;9.266;2023-02-15T07:36:32;102468.34;;;1.25;76.78
76201;BME280;64981;52.930;9.266;2023-02-15T07:38:57;102470.22;;;1.21;77.05
76201;BME280;64981;52.930;9.266;2023-02-15T07:41:23;102463.13;;;1.46;76.43
76201;BME280;64981;52.930;9.266;2023-02-15T07:43:48;102462.09;;;1.50;75.78
76201;BME280;64981;52.930;9.266;2023-02-15T07:46:15;102460.88;;;1.59;76.21
76201;BME280;64981;52.930;9.266;2023-02-15T07:48:43;102462.09;;;2.12;74.57
76201;BME280;64981;52.930;9.266;2023-02-15T07:51:10;102452.22;;;2.58;72.99
76201;BME280;64981;52.930;9.266;2023-02-15T07:53:38;102443.94;;;2.87;72.27
76201;BME280;64981;52.930;9.266;2023-02-15T07:56:08;102432.28;;;3.30;70.89
76201;BME280;64981;52.930;9.266;2023-02-15T07:58:34;102435.84;;;4.15;68.26
76201;BME280;64981;52.930;9.266;2023-02-15T08:01:22;102439.09;;;4.53;66.72
76201;BME280;64981;52.930;9.266;2023-02-15T08:03:48;102438.88;;;4.73;65.52
76201;BME280;64981;52.930;9.266;2023-02-15T08:06:15;102439.34;;;5.42;63.90
76201;BME280;64981;52.930;9.266;2023-02-15T08:08:42;102429.09;;;5.53;63.30
76201;BME280;64981;52.930;9.266;2023-02-15T08:11:18;102431.19;;;5.92;62.32
76201;BME280;64981;52.930;9.266;2023-02-15T08:13:57;102419.47;;;6.40;60.89
76201;BME280;64981;52.930;9.266;2023-02-15T08:16:33;102419.84;;;6.34;60.70
76201;BME280;64981;52.930;9.266;2023-02-15T08:19:10;102396.91;;;6.09;60.67
76201;BME280;64981;52.930;9.266;2023-02-15T08:21:39;102417.00;;;5.80;61.81
76201;BME280;64981;52.930;9.266;2023-02-15T08:24:07;102409.28;;;5.18;62.88
76201;BME280;64981;52.930;9.266;2023-02-15T08:26:33;102421.13;;;5.25;63.06
76201;BME280;64981;52.930;9.266;2023-02-15T08:29:00;102422.78;;;5.71;62.78
76201;BME280;64981;52.930;9.266;2023-02-15T08:31:27;102405.50;;;5.53;63.21
76201;BME280;64981;52.930;9.266;2023-02-15T08:33:55;102420.53;;;5.35;64.16
76201;BME280;64981;52.930;9.266;2023-02-15T08:36:24;102397.91;;;5.78;62.74
76201;BME280;64981;52.930;9.266;2023-02-15T08:38:50;102400.38;;;6.10;62.21
76201;BME280;64981;52.930;9.266;2023-02-15T08:41:24;102402.78;;;7.10;60.40
76201;BME280;64981;52.930;9.266;2023-02-15T08:43:53;102404.94;;;7.18;58.36
76201;BME280;64981;52.930;9.266;2023-02-15T08:46:21;102397.72;;;7.98;57.96
76201;BME280;64981;52.930;9.266;2023-02-15T08:48:48;102405.50;;;8.12;57.54
76201;BME280;64981;52.930;9.266;2023-02-15T08:51:18;102412.03;;;8.19;56.18
76201;BME280;64981;52.930;9.266;2023-02-15T08:53:49;102409.47;;;8.43;56.24
76201;BME280;64981;52.930;9.266;2023-02-15T08:56:15;102399.81;;;8.31;56.29
76201;BME280;64981;52.930;9.266;2023-02-15T08:58:42;102400.25;;;7.87;58.12
76201;BME280;64981;52.930;9.266;2023-02-15T09:01:10;102399.81;;;8.06;57.41
76201;BME280;64981;52.930;9.266;2023-02-15T09:03:37;102391.50;;;7.87;58.25
76201;BME280;64981;52.930;9.266;2023-02-15T09:06:03;102384.00;;;8.44;58.04
76201;BME280;64981;52.930;9.266;2023-02-15T09:08:29;102390.09;;;8.93;55.99
76201;BME280;64981;52.930;9.266;2023-02-15T09:11:05;102383.41;;;9.48;53.33
76201;BME280;64981;52.930;9.266;2023-02-15T09:13:31;102377.69;;;10.22;52.63
76201;BME280;64981;52.930;9.266;2023-02-15T09:16:04;102384.75;;;10.44;52.69
76201;BME280;64981;52.930;9.266;2023-02-15T09:18:33;102382.34;;;10.74;50.90
76201;BME280;64981;52.930;9.266;2023-02-15T09:21:10;102375.00;;;10.77;51.37
76201;BME280;64981;52.930;9.266;2023-02-15T09:23:36;102381.72;;;11.45;50.07
76201;BME280;64981;52.930;9.266;2023-02-15T09:26:05;102383.78;;;11.42;49.82
76201;BME280;64981;52.930;9.266;2023-02-15T09:28:31;102391.66;;;11.64;49.01
76201;BME280;64981;52.930;9.266;2023-02-15T09:31:06;102393.53;;;12.64;47.33
76201;BME280;64981;52.930;9.266;2023-02-15T09:33:34;102382.03;;;12.44;47.41
76201;BME280;64981;52.930;9.266;2023-02-15T09:36:00;102388.22;;;13.42;44.64
76201;BME280;64981;52.930;9.266;2023-02-15T09:38:26;102389.88;;;12.55;46.78
76201;BME280;64981;52.930;9.266;2023-02-15T09:41:14;102392.13;;;12.50;46.00
76201;BME280;64981;52.930;9.266;2023-02-15T09:47:06;102388.13;;;12.75;46.24
76201;BME280;64981;52.930;9.266;2023-02-15T09:56:36;102376.56;;;12.36;46.98
76201;BME280;64981;52.930;9.266;2023-02-15T10:07:58;102383.09;;;12.72;47.48
76201;BME280;64981;52.930;9.266;2023-02-15T10:17:14;102379.69;;;12.90;46.37
76201;BME280;64981;52.930;9.266;2023-02-15T10:20:17;102374.06;;;13.70;45.25
76201;BME280;64981;52.930;9.266;2023-02-15T10:26:08;102369.41;;;13.82;44.12
76201;BME280;64981;52.930;9.266;2023-02-15T10:28:53;102363.00;;;13.94;44.69
76201;BME280;64981;52.930;9.266;2023-02-15T10:31:49;102367.09;;;14.52;43.33
76201;BME280;64981;52.930;9.266;2023-02-15T10:34:31;102376.44;;;13.73;45.08
76201;BME280;64981;52.930;9.266;2023-02-15T10:49:23;102366.28;;;14.70;44.12
76201;BME280;64981;52.930;9.266;2023-02-15T10:52:14;102359.38;;;14.32;44.60
76201;BME280;64981;52.930;9.266;2023-02-15T11:00:42;102356.56;;;13.87;46.61
76201;BME280;64981;52.930;9.266;2023-02-15T11:06:11;102319.44;;;13.68;46.90
76201;BME280;64981;52.930;9.266;2023-02-15T11:08:43;102349.03;;;13.73;46.41
76201;BME280;64981;52.930;9.266;2023-02-15T11:11:23;102348.75;;;14.32;45.58
76201;BME280;64981;52.930;9.266;2023-02-15T11:13:58;102352.06;;;14.61;45.31
76201;BME280;64981;52.930;9.266;2023-02-15T11:16:32;102348.66;;;14.41;45.46
76201;BME280;64981;52.930;9.266;2023-02-15T11:19:08;102349.94;;;15.27;44.29
76201;BME280;64981;52.930;9.266;2023-02-15T11:21:42;102351.03;;;14.72;44.52
76201;BME280;64981;52.930;9.266;2023-02-15T11:24:12;102353.16;;;14.68;45.30
76201;BME280;64981;52.930;9.266;2023-02-15T11:26:44;102345.66;;;14.54;45.86
76201;BME280;64981;52.930;9.266;2023-02-15T11:29:33;102342.72;;;14.30;46.72
76201;BME280;64981;52.930;9.266;2023-02-15T11:32:04;102332.47;;;14.80;45.92
76201;BME280;64981;52.930;9.266;2023-02-15T11:34:51;102327.09;;;15.94;43.59
76201;BME280;64981;52.930;9.266;2023-02-15T11:37:27;102311.56;;;14.49;45.68
76201;BME280;64981;52.930;9.266;2023-02-15T11:39:54;102311.22;;;15.58;43.72
76201;BME280;64981;52.930;9.266;2023-02-15T11:42:23;102319.31;;;16.00;43.38
76201;BME280;64981;52.930;9.266;2023-02-15T11:45:02;102307.94;;;15.98;43.01
76201;BME280;64981;52.930;9.266;2023-02-15T11:47:30;102306.41;;;15.36;44.11
76201;BME280;64981;52.930;9.266;2023-02-15T11:49:57;102303.97;;;15.43;44.73
76201;BME280;64981;52.930;9.266;2023-02-15T11:52:23;102297.91;;;15.92;43.43
76201;BME280;64981;52.930;9.266;2023-02-15T11:54:51;102309.59;;;16.25;43.00
76201;BME280;64981;52.930;9.266;2023-02-15T11:57:33;102305.03;;;15.84;44.06
76201;BME280;64981;52.930;9.266;2023-02-15T12:00:16;102305.13;;;16.26;42.97
76201;BME280;64981;52.930;9.266;2023-02-15T12:02:52;102296.34;;;16.41;42.89
76201;BME280;64981;52.930;9.266;2023-02-15T12:05:23;102288.41;;;16.15;43.17
76201;BME280;64981;52.930;9.266;2023-02-15T12:08:03;102274.28;;;15.63;43.85
76201;BME280;64981;52.930;9.266;2023-02-15T12:10:42;102286.13;;;15.00;45.37
76201;BME280;64981;52.930;9.266;2023-02-15T12:13:18;102286.16;;;14.37;46.45
76201;BME280;64981;52.930;9.266;2023-02-15T12:15:47;102274.41;;;14.57;46.85
76201;BME280;64981;52.930;9.266;2023-02-15T12:21:07;102240.59;;;15.03;44.70
76201;BME280;64981;52.930;9.266;2023-02-15T12:23:33;102266.13;;;14.61;44.38
76201;BME280;64981;52.930;9.266;2023-02-15T12:26:01;102272.06;;;14.54;44.51
76201;BME280;64981;52.930;9.266;2023-02-15T12:28:33;102262.94;;;14.92;44.15
76201;BME280;64981;52.930;9.266;2023-02-15T12:31:02;102268.81;;;15.39;43.38
76201;BME280;64981;52.930;9.266;2023-02-15T12:33:36;102263.28;;;15.07;42.84
76201;BME280;64981;52.930;9.266;2023-02-15T12:36:25;102251.53;;;15.43;43.02
76201;BME280;64981;52.930;9.266;2023-02-15T12:39:17;102259.09;;;15.56;42.26
76201;BME280;64981;52.930;9.266;2023-02-15T12:41:57;102253.75;;;15.22;43.34
76201;BME280;64981;52.930;9.266;2023-02-15T12:44:33;102251.59;;;15.26;43.65
76201;BME280;64981;52.930;9.266;2023-02-15T12:47:05;102252.97;;;15.63;42.46
76201;BME280;64981;52.930;9.266;2023-02-15T12:49:34;102225.09;;;15.16;43.22
76201;BME280;64981;52.930;9.266;2023-02-15T12:52:05;102241.88;;;14.99;44.58
76201;BME280;64981;52.930;9.266;2023-02-15T12:54:42;102229.38;;;15.17;44.20
76201;BME280;64981;52.930;9.266;2023-02-15T12:57:25;102234.00;;;14.72;45.46
76201;BME280;64981;52.930;9.266;2023-02-15T12:59:57;102225.03;;;14.55;45.92
76201;BME280;64981;52.930;9.266;2023-02-15T13:02:30;102221.25;;;14.75;46.15
76201;BME280;64981;52.930;9.266;2023-02-15T13:05:03;102218.00;;;14.89;44.47
76201;BME280;64981;52.930;9.266;2023-02-15T13:07:30;102228.19;;;13.96;46.53
76201;BME280;64981;52.930;9.266;2023-02-15T13:09:57;102201.06;;;14.20;46.51
76201;BME280;64981;52.930;9.266;2023-02-15T13:12:27;102216.16;;;14.46;46.65
76201;BME280;64981;52.930;9.266;2023-02-15T13:14:55;102226.91;;;14.10;46.85
76201;BME280;64981;52.930;9.266;2023-02-15T13:17:29;102214.59;;;14.26;47.39
76201;BME280;64981;52.930;9.266;2023-02-15T13:20:02;102214.22;;;14.21;46.37
76201;BME280;64981;52.930;9.266;2023-02-15T13:22:38;102203.59;;;14.21;46.85
76201;BME280;64981;52.930;9.266;2023-02-15T13:25:21;102202.38;;;14.33;46.46
76201;BME280;64981;52.930;9.266;2023-02-15T13:27:53;102203.53;;;14.66;45.92
76201;BME280;64981;52.930;9.266;2023-02-15T13:30:32;102200.63;;;14.24;46.37
76201;BME280;64981;52.930;9.266;2023-02-15T13:33:21;102193.25;;;14.00;47.12
76201;BME280;64981;52.930;9.266;2023-02-15T13:36:05;102197.38;;;14.13;46.51
76201;BME280;64981;52.930;9.266;2023-02-15T13:38:49;102186.88;;;14.11;47.03
76201;BME280;64981;52.930;9.266;2023-02-15T13:41:34;102190.75;;;14.70;45.93
76201;BME280;64981;52.930;9.266;2023-02-15T13:44:18;102187.44;;;14.50;45.62
76201;BME280;64981;52.930;9.266;2023-02-15T13:47:12;102186.66;;;14.40;45.92
76201;BME280;64981;52.930;9.266;2023-02-15T13:50:03;102191.63;;;13.80;47.42
76201;BME280;64981;52.930;9.266;2023-02-15T13:52:47;102178.75;;;13.85;46.92
76201;BME280;64981;52.930;9.266;2023-02-15T13:55:36;102180.78;;;14.01;46.90
76201;BME280;64981;52.930;9.266;2023-02-15T13:58:30;102182.63;;;13.64;47.86
76201;BME280;64981;52.930;9.266;2023-02-15T14:01:10;102167.25;;;13.67;47.96
76201;BME280;64981;52.930;9.266;2023-02-15T14:07:01;102174.16;;;13.14;48.92
76201;BME280;64981;52.930;9.266;2023-02-15T14:10:02;102155.53;;;13.33;48.41
76201;BME280;64981;52.930;9.266;2023-02-15T14:12:47;102159.25;;;13.49;48.19
76201;BME280;64981;52.930;9.266;2023-02-15T14:18:48;102164.88;;;13.37;48.58
76201;BME280;64981;52.930;9.266;2023-02-15T14:21:31;102156.91;;;13.64;48.95
76201;BME280;64981;52.930;9.266;2023-02-15T14:27:07;102161.78;;;12.95;50.52
76201;BME280;64981;52.930;9.266;2023-02-15T14:29:51;102145.56;;;12.98;50.46
76201;BME280;64981;52.930;9.266;2023-02-15T14:32:29;102159.84;;;12.97;50.31
76201;BME280;64981;52.930;9.266;2023-02-15T14:35:00;102166.97;;;12.49;50.98